createdAt,value
2023-02-19T00:02:20.914Z,23.63
2023-02-19T00:05:24.541Z,26.42
2023-02-19T00:08:27.453Z,28.38
2023-02-19T00:11:33.192Z,25.90
2023-02-19T00:14:35.959Z,24.90
2023-02-19T00:17:38.818Z,29.50
2023-02-19T00:20:42.395Z,26.48
2023-02-19T00:23:52.534Z,26.02
2023-02-19T00:26:55.287Z,26.07
2023-02-19T00:29:58.709Z,24.90
2023-02-19T00:33:01.647Z,26.10
2023-02-19T00:36:06.165Z,24.40
2023-02-19T00:39:14.327Z,26.15
2023-02-19T00:42:17.204Z,28.03
2023-02-19T00:45:20.100Z,24.43
2023-02-19T00:48:23.469Z,27.50
2023-02-19T00:51:29.721Z,23.10
2023-02-19T00:54:32.800Z,25.70
2023-02-19T00:57:35.703Z,24.50
2023-02-19T01:00:38.924Z,21.37
2023-02-19T01:03:42.292Z,25.88
2023-02-19T01:06:45.212Z,25.05
2023-02-19T01:09:48.042Z,26.98
2023-02-19T01:12:51.002Z,25.43
2023-02-19T01:15:54.607Z,25.73
2023-02-19T01:18:58.418Z,25.90
2023-02-19T01:22:01.281Z,23.42
2023-02-19T01:25:06.418Z,28.15
2023-02-19T01:28:11.455Z,23.63
2023-02-19T01:31:18.527Z,25.27
2023-02-19T01:34:21.713Z,28.77
2023-02-19T01:37:24.600Z,26.42
2023-02-19T01:40:29.134Z,22.30
2023-02-19T01:43:33.204Z,24.27
2023-02-19T01:46:37.723Z,21.10
2023-02-19T01:50:01.866Z,22.90
2023-02-19T01:53:08.896Z,21.45
2023-02-19T01:56:13.710Z,22.83
2023-02-19T01:59:18.490Z,21.60
2023-02-19T02:02:22.884Z,20.93
2023-02-19T02:05:47.975Z,25.17
2023-02-19T02:09:15.790Z,22.50
2023-02-19T02:12:18.864Z,23.00
2023-02-19T02:15:24.579Z,18.20
2023-02-19T02:19:23.088Z,19.90
2023-02-19T02:22:43.002Z,19.05
2023-02-19T02:26:10.600Z,21.25
2023-02-19T02:29:25.434Z,20.67
2023-02-19T02:32:36.277Z,19.80
2023-02-19T02:35:56.949Z,20.23
2023-02-19T02:39:03.666Z,17.65
2023-02-19T02:42:30.208Z,20.90
2023-02-19T02:45:45.620Z,16.63
2023-02-19T02:48:58.841Z,18.93
2023-02-19T02:52:22.393Z,16.53
2023-02-19T02:55:29.033Z,16.00
2023-02-19T02:58:34.161Z,17.77
2023-02-19T03:02:08.913Z,16.45
2023-02-19T03:05:30.172Z,18.57
2023-02-19T03:08:39.292Z,17.83
2023-02-19T03:12:06.023Z,16.90
2023-02-19T03:15:33.368Z,18.27
2023-02-19T03:18:57.247Z,18.88
2023-02-19T03:22:17.299Z,16.77
2023-02-19T03:25:42.932Z,17.30
2023-02-19T03:29:10.048Z,17.92
2023-02-19T03:32:29.775Z,14.77
2023-02-19T03:35:37.110Z,19.02
2023-02-19T03:38:48.975Z,16.90
2023-02-19T03:42:10.589Z,16.73
2023-02-19T03:45:32.482Z,19.40
2023-02-19T03:48:53.151Z,15.50
2023-02-19T03:52:21.946Z,15.52
2023-02-19T03:55:51.606Z,18.17
2023-02-19T03:59:11.946Z,16.33
2023-02-19T04:02:33.982Z,18.85
2023-02-19T04:05:42.333Z,14.73
2023-02-19T04:08:50.294Z,12.52
2023-02-19T04:11:55.428Z,16.63
2023-02-19T04:15:04.493Z,13.73
2023-02-19T04:18:16.476Z,16.02
2023-02-19T04:21:21.872Z,14.63
2023-02-19T04:24:50.365Z,17.50
2023-02-19T04:27:53.270Z,15.75
2023-02-19T04:30:56.199Z,17.00
2023-02-19T04:33:59.015Z,18.00
2023-02-19T04:37:01.913Z,17.10
2023-02-19T04:40:05.211Z,16.77
2023-02-19T04:43:08.190Z,17.73
2023-02-19T04:46:10.936Z,17.07
2023-02-19T04:49:13.784Z,14.70
2023-02-19T04:52:16.890Z,16.70
2023-02-19T04:55:19.792Z,14.38
2023-02-19T04:58:22.825Z,15.53
2023-02-19T05:01:26.342Z,14.87
2023-02-19T05:04:29.335Z,14.32
2023-02-19T05:07:32.299Z,16.52
2023-02-19T05:10:36.525Z,17.23
2023-02-19T05:13:40.560Z,16.67
2023-02-19T05:16:43.409Z,14.50
2023-02-19T05:19:46.452Z,15.27
2023-02-19T05:22:49.604Z,17.85
2023-02-19T05:25:52.711Z,21.20
2023-02-19T05:28:55.483Z,21.73
2023-02-19T05:31:58.637Z,20.53
2023-02-19T05:35:01.540Z,22.70
2023-02-19T05:38:06.134Z,22.35
2023-02-19T05:41:17.381Z,22.95
2023-02-19T05:44:20.361Z,18.90
2023-02-19T05:47:23.204Z,20.40
2023-02-19T05:50:26.789Z,16.73
2023-02-19T05:53:29.646Z,16.42
2023-02-19T05:56:42.934Z,15.35
2023-02-19T05:59:45.742Z,25.63
2023-02-19T06:02:49.119Z,21.93
2023-02-19T06:05:52.105Z,17.08
2023-02-19T06:08:55.472Z,14.98
2023-02-19T06:11:58.385Z,20.08
2023-02-19T06:15:01.247Z,15.07
2023-02-19T06:18:04.376Z,15.57
2023-02-19T06:21:10.408Z,14.30
2023-02-19T06:24:13.626Z,14.73
2023-02-19T06:27:16.783Z,14.23
2023-02-19T06:30:19.885Z,17.83
2023-02-19T06:33:22.707Z,13.67
2023-02-19T06:36:25.825Z,14.65
2023-02-19T06:39:28.641Z,13.35
2023-02-19T06:42:34.518Z,13.98
2023-02-19T06:45:37.340Z,15.33
2023-02-19T06:48:41.731Z,15.43
2023-02-19T06:51:44.642Z,17.15
2023-02-19T06:54:47.609Z,17.27
2023-02-19T06:57:50.476Z,13.38
2023-02-19T07:00:54.029Z,14.65
2023-02-19T07:03:57.089Z,13.30
2023-02-19T07:07:00.549Z,14.10
2023-02-19T07:10:04.725Z,12.90
2023-02-19T07:13:08.419Z,13.18
2023-02-19T07:16:12.450Z,15.35
2023-02-19T07:19:16.067Z,13.00
2023-02-19T07:22:18.945Z,14.13
2023-02-19T07:25:21.980Z,14.52
2023-02-19T07:28:25.026Z,14.25
2023-02-19T07:31:28.929Z,12.43
2023-02-19T07:34:32.077Z,14.00
2023-02-19T07:37:35.047Z,14.93
2023-02-19T07:40:38.616Z,14.25
2023-02-19T07:43:41.536Z,19.05
2023-02-19T07:46:44.658Z,14.77
2023-02-19T07:49:47.714Z,17.23
2023-02-19T07:52:50.444Z,15.50
2023-02-19T07:55:53.839Z,13.65
2023-02-19T07:58:56.732Z,13.52
2023-02-19T08:02:18.459Z,16.17
2023-02-19T08:05:21.313Z,12.57
2023-02-19T08:08:24.349Z,13.75
2023-02-19T08:11:45.894Z,16.70
2023-02-19T08:14:48.838Z,12.68
2023-02-19T08:17:52.172Z,16.10
2023-02-19T08:20:56.051Z,15.07
2023-02-19T08:23:58.953Z,15.77
2023-02-19T08:27:01.822Z,17.00
2023-02-19T08:30:05.595Z,12.23
2023-02-19T08:33:10.761Z,16.65
2023-02-19T08:36:13.679Z,15.93
2023-02-19T08:39:16.862Z,21.23
2023-02-19T08:42:20.425Z,15.35
2023-02-19T08:45:24.537Z,16.65
2023-02-19T08:48:27.897Z,18.92
2023-02-19T08:51:30.712Z,16.77
2023-02-19T08:54:33.569Z,16.50
2023-02-19T08:57:37.809Z,17.42
2023-02-19T09:00:41.268Z,17.77
2023-02-19T09:03:44.464Z,17.67
2023-02-19T09:06:47.356Z,19.80
2023-02-19T09:09:50.665Z,16.40
2023-02-19T09:12:53.495Z,19.40
2023-02-19T09:15:57.384Z,16.45
2023-02-19T09:19:00.442Z,15.18
2023-02-19T09:22:04.692Z,18.10
2023-02-19T09:25:07.776Z,18.17
2023-02-19T09:28:10.501Z,16.67
2023-02-19T09:31:16.060Z,16.98
2023-02-19T09:34:19.189Z,18.17
2023-02-19T09:37:25.952Z,21.33
2023-02-19T09:40:30.502Z,17.83
2023-02-19T09:43:34.005Z,16.55
2023-02-19T09:46:52.011Z,17.40
2023-02-19T09:50:01.155Z,16.13
2023-02-19T09:53:12.968Z,15.67
2023-02-19T09:56:16.358Z,18.00
2023-02-19T09:59:31.949Z,17.27
2023-02-19T10:02:34.853Z,15.35
2023-02-19T10:05:40.047Z,18.73
2023-02-19T10:08:46.123Z,18.20
2023-02-19T10:11:49.969Z,17.10
2023-02-19T10:15:00.225Z,18.27
2023-02-19T10:18:05.245Z,19.50
2023-02-19T10:21:19.855Z,17.55
2023-02-19T10:24:29.861Z,15.40
2023-02-19T10:27:33.399Z,17.67
2023-02-19T10:30:37.545Z,13.00
2023-02-19T10:33:58.404Z,17.48
2023-02-19T10:37:01.387Z,20.52
2023-02-19T10:40:04.702Z,21.87
2023-02-19T10:43:22.583Z,19.05
2023-02-19T10:46:32.184Z,15.75
2023-02-19T10:49:40.866Z,22.05
2023-02-19T10:52:44.054Z,22.20
2023-02-19T10:55:46.981Z,13.03
2023-02-19T10:58:50.234Z,14.60
2023-02-19T11:02:01.866Z,13.75
2023-02-19T11:05:19.979Z,13.95
2023-02-19T11:08:24.099Z,14.30
2023-02-19T11:11:35.547Z,15.97
2023-02-19T11:14:43.566Z,13.65
2023-02-19T11:17:55.371Z,16.30
2023-02-19T11:21:01.170Z,14.57
2023-02-19T11:24:04.485Z,16.35
2023-02-19T11:27:19.513Z,15.27
2023-02-19T11:30:33.863Z,10.35
2023-02-19T11:33:45.091Z,11.35
2023-02-19T11:37:11.792Z,13.13
2023-02-19T11:40:14.614Z,13.85
2023-02-19T11:43:39.578Z,13.20
2023-02-19T11:46:57.088Z,14.15
2023-02-19T11:50:14.845Z,15.05
2023-02-19T11:53:28.065Z,11.82
2023-02-19T11:56:36.704Z,11.55
2023-02-19T11:59:53.846Z,16.07
2023-02-19T12:03:34.692Z,15.05
2023-02-19T12:06:49.372Z,13.50
2023-02-19T12:09:59.552Z,16.45
2023-02-19T12:13:14.351Z,12.73
2023-02-19T12:16:30.161Z,15.50
2023-02-19T12:19:55.010Z,14.60
2023-02-19T12:23:35.055Z,11.32
2023-02-19T12:27:08.689Z,12.13
2023-02-19T12:30:29.797Z,11.80
2023-02-19T12:33:53.900Z,14.33
2023-02-19T12:37:23.779Z,13.60
2023-02-19T12:40:57.887Z,9.73
2023-02-19T12:44:37.861Z,13.27
2023-02-19T12:47:43.790Z,11.90
2023-02-19T12:50:50.899Z,12.70
2023-02-19T12:54:12.601Z,15.77
2023-02-19T12:57:29.316Z,14.10
2023-02-19T13:00:45.541Z,12.18
2023-02-19T13:03:54.776Z,13.05
2023-02-19T13:07:17.660Z,13.27
2023-02-19T13:11:00.194Z,17.75
2023-02-19T13:14:13.677Z,15.13
2023-02-19T13:17:26.938Z,11.30
2023-02-19T13:20:38.115Z,14.55
2023-02-19T13:23:59.545Z,15.67
2023-02-19T13:27:44.283Z,11.80
2023-02-19T13:31:22.193Z,13.27
2023-02-19T13:34:48.073Z,19.52
2023-02-19T13:37:54.320Z,14.95
2023-02-19T13:41:00.244Z,18.37
2023-02-19T13:44:06.863Z,14.68
2023-02-19T13:47:49.678Z,15.90
2023-02-19T13:51:26.865Z,11.45
2023-02-19T13:54:40.476Z,14.40
2023-02-19T13:57:45.043Z,18.10
2023-02-19T14:00:55.112Z,13.20
2023-02-19T14:04:18.514Z,22.20
2023-02-19T14:07:27.367Z,17.33
2023-02-19T14:10:58.431Z,13.73
2023-02-19T14:14:06.701Z,14.50
2023-02-19T14:17:10.126Z,14.98
2023-02-19T14:20:17.143Z,19.85
2023-02-19T14:23:24.356Z,14.77
2023-02-19T14:26:30.974Z,16.40
2023-02-19T14:29:34.311Z,21.50
2023-02-19T14:32:42.221Z,15.73
2023-02-19T14:35:49.564Z,17.52
2023-02-19T14:38:58.552Z,19.65
2023-02-19T14:42:09.821Z,22.48
2023-02-19T14:45:16.224Z,20.23
2023-02-19T14:48:24.723Z,19.40
2023-02-19T14:51:33.712Z,18.90
2023-02-19T14:54:43.355Z,18.60
2023-02-19T14:57:49.878Z,21.60
2023-02-19T15:00:53.077Z,18.00
2023-02-19T15:03:56.719Z,19.70
2023-02-19T15:07:02.736Z,18.15
2023-02-19T15:10:11.434Z,16.67
2023-02-19T15:13:23.423Z,16.60
2023-02-19T15:16:28.427Z,20.10
2023-02-19T15:19:39.733Z,21.80
2023-02-19T15:22:46.326Z,23.55
2023-02-19T15:25:49.762Z,23.23
2023-02-19T15:29:20.208Z,22.67
2023-02-19T15:32:27.168Z,19.43
2023-02-19T15:35:32.756Z,23.13
2023-02-19T15:38:36.521Z,23.00
2023-02-19T15:41:39.650Z,18.38
2023-02-19T15:44:47.626Z,20.15
2023-02-19T15:47:59.552Z,22.47
2023-02-19T15:51:09.935Z,22.73
2023-02-19T15:54:38.610Z,23.15
2023-02-19T15:57:46.712Z,23.45
2023-02-19T16:00:57.495Z,20.40
2023-02-19T16:04:01.014Z,24.97
2023-02-19T16:07:04.153Z,22.90
2023-02-19T16:10:19.336Z,27.38
2023-02-19T16:13:31.836Z,22.65
2023-02-19T16:16:41.125Z,24.92
2023-02-19T16:19:57.580Z,24.87
2023-02-19T16:23:10.617Z,19.85
2023-02-19T16:26:14.135Z,25.05
2023-02-19T16:29:22.780Z,25.83
2023-02-19T16:32:26.158Z,23.17
2023-02-19T16:35:40.126Z,28.73
2023-02-19T16:39:08.310Z,22.75
2023-02-19T16:42:13.670Z,30.05
2023-02-19T16:45:18.192Z,29.02
2023-02-19T16:48:23.139Z,26.20
2023-02-19T16:51:27.549Z,23.43
2023-02-19T16:54:30.815Z,31.23
2023-02-19T16:57:33.874Z,28.63
2023-02-19T17:00:37.167Z,32.40
2023-02-19T17:03:40.498Z,28.38
2023-02-19T17:06:44.634Z,27.13
2023-02-19T17:09:47.637Z,27.40
2023-02-19T17:12:52.018Z,26.52
2023-02-19T17:15:55.648Z,24.25
2023-02-19T17:18:59.067Z,34.92
2023-02-19T17:22:02.077Z,28.43
2023-02-19T17:25:05.595Z,27.30
2023-02-19T17:28:08.597Z,29.42
2023-02-19T17:31:13.964Z,32.05
2023-02-19T17:34:17.174Z,29.58
2023-02-19T17:37:20.150Z,26.87
2023-02-19T17:40:33.082Z,24.42
2023-02-19T17:43:36.717Z,24.70
2023-02-19T17:46:41.189Z,27.02
2023-02-19T17:49:44.290Z,22.02
2023-02-19T17:52:47.451Z,24.53
2023-02-19T17:55:51.069Z,26.25
2023-02-19T17:58:55.975Z,27.55
2023-02-19T18:01:59.171Z,34.60
2023-02-19T18:05:02.034Z,29.67
2023-02-19T18:08:04.928Z,31.00
2023-02-19T18:11:08.324Z,31.73
2023-02-19T18:14:11.541Z,28.80
2023-02-19T18:17:15.245Z,27.35
2023-02-19T18:20:22.333Z,32.42
2023-02-19T18:23:25.562Z,31.13
2023-02-19T18:26:28.782Z,29.80
2023-02-19T18:29:35.043Z,34.22
2023-02-19T18:32:39.174Z,30.45
2023-02-19T18:35:42.367Z,29.92
2023-02-19T18:38:46.370Z,43.17
2023-02-19T18:41:51.916Z,57.42
2023-02-19T18:44:56.226Z,55.13
2023-02-19T18:47:59.300Z,58.58
2023-02-19T18:51:02.572Z,39.83
2023-02-19T18:54:07.937Z,41.57
2023-02-19T18:57:11.058Z,50.28
2023-02-19T19:00:26.516Z,51.63
2023-02-19T19:03:31.679Z,44.15
2023-02-19T19:06:37.733Z,44.87
2023-02-19T19:09:40.969Z,48.90
2023-02-19T19:12:44.951Z,56.92
2023-02-19T19:15:51.464Z,62.03
2023-02-19T19:18:55.530Z,66.13
2023-02-19T19:21:58.838Z,75.23
2023-02-19T19:25:02.052Z,76.47
2023-02-19T19:28:05.427Z,67.28
2023-02-19T19:31:08.377Z,64.95
2023-02-19T19:34:12.742Z,63.05
2023-02-19T19:37:16.954Z,61.37
2023-02-19T19:40:20.337Z,51.13
2023-02-19T19:43:27.447Z,57.10
2023-02-19T19:46:30.879Z,49.17
2023-02-19T19:49:34.153Z,41.78
2023-02-19T19:52:37.469Z,31.07
2023-02-19T19:55:41.249Z,27.53
2023-02-19T19:58:44.685Z,21.33
2023-02-19T20:01:52.668Z,14.98
2023-02-19T20:04:55.593Z,5.63
2023-02-19T20:07:58.785Z,4.50
2023-02-19T20:11:03.114Z,4.70
2023-02-19T20:14:06.330Z,4.10
2023-02-19T20:17:09.764Z,2.60
2023-02-19T20:20:13.938Z,4.18
2023-02-19T20:23:17.129Z,4.00
2023-02-19T20:26:28.175Z,4.67
2023-02-19T20:29:34.526Z,4.55
2023-02-19T20:32:39.756Z,3.22
2023-02-19T20:35:42.983Z,6.35
2023-02-19T20:38:46.911Z,7.30
2023-02-19T20:41:51.884Z,4.20
2023-02-19T20:44:56.565Z,3.75
2023-02-19T20:47:59.884Z,4.13
2023-02-19T20:51:03.237Z,5.03
2023-02-19T20:54:06.327Z,7.33
2023-02-19T20:57:10.301Z,5.53
2023-02-19T21:00:15.690Z,4.30
2023-02-19T21:03:18.832Z,3.92
2023-02-19T21:06:22.786Z,1.80
2023-02-19T21:09:25.657Z,4.18
2023-02-19T21:12:28.927Z,3.20
2023-02-19T21:15:34.480Z,2.58
2023-02-19T21:18:37.547Z,3.45
2023-02-19T21:21:40.784Z,1.85
2023-02-19T21:24:43.733Z,5.40
2023-02-19T21:27:46.703Z,3.73
2023-02-19T21:30:49.825Z,4.47
2023-02-19T21:33:52.762Z,2.38
2023-02-19T21:36:56.591Z,2.58
2023-02-19T21:40:00.616Z,4.10
2023-02-19T21:43:04.668Z,2.80
2023-02-19T21:46:07.574Z,1.98
2023-02-19T21:49:11.728Z,2.30
2023-02-19T21:52:14.803Z,1.48
2023-02-19T21:55:17.716Z,3.20
2023-02-19T21:58:20.856Z,2.17
2023-02-19T22:01:30.277Z,2.42
2023-02-19T22:04:33.112Z,3.30
2023-02-19T22:07:35.968Z,3.05
2023-02-19T22:10:42.676Z,2.03
2023-02-19T22:13:45.563Z,1.93
2023-02-19T22:16:48.545Z,1.60
2023-02-19T22:19:51.467Z,1.63
2023-02-19T22:22:54.354Z,3.28
2023-02-19T22:25:57.248Z,2.58
2023-02-19T22:29:01.559Z,2.07
2023-02-19T22:32:04.744Z,3.35
2023-02-19T22:35:07.893Z,1.13
2023-02-19T22:38:10.794Z,0.98
2023-02-19T22:41:14.642Z,0.60
2023-02-19T22:44:17.932Z,1.17
2023-02-19T22:47:20.870Z,2.40
2023-02-19T22:50:23.965Z,1.33
2023-02-19T22:53:26.909Z,1.10
2023-02-19T22:56:30.342Z,3.67
2023-02-19T22:59:33.217Z,2.77
2023-02-19T23:02:36.552Z,1.45
2023-02-19T23:05:39.934Z,2.25
2023-02-19T23:08:44.229Z,1.80
2023-02-19T23:11:47.825Z,1.80
2023-02-19T23:14:50.640Z,1.87
2023-02-19T23:17:53.483Z,1.88
2023-02-19T23:20:56.379Z,1.77
2023-02-19T23:23:59.704Z,2.22
2023-02-19T23:27:02.589Z,2.17
2023-02-19T23:30:06.266Z,4.33
2023-02-19T23:33:09.125Z,1.70
2023-02-19T23:36:14.072Z,2.75
2023-02-19T23:39:20.562Z,2.45
2023-02-19T23:42:23.433Z,2.53
2023-02-19T23:45:26.285Z,2.53
2023-02-19T23:48:29.014Z,3.03
2023-02-19T23:51:31.873Z,3.95
2023-02-19T23:54:35.087Z,2.33
2023-02-19T23:57:37.970Z,2.35
